createdAt,value
2022-11-14T00:02:50.509Z,8.32
2022-11-14T00:08:18.706Z,8.34
2022-11-14T00:13:43.161Z,8.31
2022-11-14T00:19:08.000Z,8.29
2022-11-14T00:24:33.447Z,8.26
2022-11-14T00:29:58.512Z,8.27
2022-11-14T00:35:23.120Z,8.27
2022-11-14T00:40:47.936Z,8.25
2022-11-14T00:46:12.466Z,8.24
2022-11-14T00:51:37.157Z,8.24
2022-11-14T00:57:01.611Z,8.24
2022-11-14T01:02:26.254Z,8.22
2022-11-14T01:07:50.890Z,8.22
2022-11-14T01:13:17.257Z,8.21
2022-11-14T01:18:42.389Z,8.21
2022-11-14T01:24:07.995Z,8.18
2022-11-14T01:29:32.237Z,8.14
2022-11-14T01:34:57.007Z,8.15
2022-11-14T01:40:21.508Z,8.20
2022-11-14T01:45:54.742Z,8.17
2022-11-14T01:51:25.138Z,8.13
2022-11-14T01:56:53.283Z,8.12
2022-11-14T02:02:20.449Z,8.15
2022-11-14T02:21:07.240Z,8.17
2022-11-14T02:26:36.478Z,8.18
2022-11-14T02:32:02.517Z,8.11
2022-11-14T02:37:28.275Z,8.03
2022-11-14T02:42:52.808Z,8.01
2022-11-14T02:48:18.349Z,8.03
2022-11-14T02:53:42.942Z,8.04
2022-11-14T02:59:07.141Z,8.02
2022-11-14T03:04:31.439Z,8.02
2022-11-14T03:09:56.407Z,8.01
2022-11-14T03:15:22.493Z,7.97
2022-11-14T03:20:47.385Z,7.93
2022-11-14T03:26:13.263Z,7.92
2022-11-14T03:31:38.184Z,7.96
2022-11-14T03:37:02.688Z,7.97
2022-11-14T03:42:27.641Z,7.96
2022-11-14T03:47:54.371Z,7.99
2022-11-14T03:53:19.175Z,8.04
2022-11-14T03:58:44.448Z,8.00
2022-11-14T04:04:11.144Z,7.96
2022-11-14T04:09:36.111Z,7.99
2022-11-14T04:15:00.932Z,8.02
2022-11-14T04:20:25.177Z,8.04
2022-11-14T04:25:50.026Z,8.00
2022-11-14T04:31:14.383Z,7.95
2022-11-14T04:36:39.117Z,7.93
2022-11-14T04:42:04.060Z,7.95
2022-11-14T04:47:28.432Z,7.88
2022-11-14T04:52:54.584Z,7.87
2022-11-14T04:58:19.165Z,7.90
2022-11-14T05:03:43.571Z,7.89
2022-11-14T05:09:08.676Z,7.88
2022-11-14T05:14:33.600Z,7.84
2022-11-14T05:19:58.100Z,7.83
2022-11-14T05:25:23.327Z,7.86
2022-11-14T05:30:48.161Z,7.91
2022-11-14T05:36:14.875Z,7.90
2022-11-14T05:41:40.011Z,7.87
2022-11-14T05:47:04.639Z,7.87
2022-11-14T05:52:28.979Z,7.90
2022-11-14T05:57:53.760Z,7.88
2022-11-14T06:03:18.194Z,7.82
2022-11-14T06:08:43.140Z,7.79
2022-11-14T06:14:10.842Z,7.84
2022-11-14T06:19:35.831Z,7.89
2022-11-14T06:25:02.469Z,7.89
2022-11-14T06:30:27.130Z,7.85
2022-11-14T06:35:57.234Z,7.86
2022-11-14T06:41:23.211Z,7.89
2022-11-14T06:46:47.544Z,7.89
2022-11-14T06:52:12.412Z,7.88
2022-11-14T06:57:36.652Z,7.88
2022-11-14T07:03:01.199Z,7.92
2022-11-14T07:08:25.896Z,7.94
2022-11-14T07:13:50.930Z,7.93
2022-11-14T07:19:15.376Z,7.91
2022-11-14T07:24:40.077Z,7.97
2022-11-14T07:30:05.379Z,8.04
2022-11-14T07:35:29.951Z,8.05
2022-11-14T07:41:00.131Z,8.02
2022-11-14T07:46:25.146Z,8.04
2022-11-14T07:51:50.022Z,8.03
2022-11-14T07:57:14.494Z,8.02
2022-11-14T08:02:39.616Z,8.04
2022-11-14T08:08:05.162Z,8.06
2022-11-14T08:13:33.111Z,7.97
2022-11-14T08:18:58.233Z,7.90
2022-11-14T08:24:23.091Z,7.87
2022-11-14T08:29:48.264Z,7.84
2022-11-14T08:35:12.646Z,7.77
2022-11-14T08:40:37.377Z,7.77
2022-11-14T08:46:03.371Z,7.76
2022-11-14T08:51:27.800Z,7.78
2022-11-14T08:56:52.455Z,7.82
2022-11-14T09:02:17.222Z,7.92
2022-11-14T09:07:41.873Z,8.05
2022-11-14T09:13:06.687Z,8.08
2022-11-14T09:18:31.772Z,8.09
2022-11-14T09:24:00.676Z,8.14
2022-11-14T09:29:26.461Z,8.16
2022-11-14T09:34:50.956Z,8.11
2022-11-14T09:40:15.660Z,8.07
2022-11-14T09:45:48.780Z,8.09
2022-11-14T09:51:19.644Z,8.10
2022-11-14T09:56:44.150Z,8.13
2022-11-14T10:02:20.499Z,8.19
2022-11-14T10:07:59.120Z,8.23
2022-11-14T10:13:39.414Z,8.32
2022-11-14T10:19:18.425Z,8.39
2022-11-14T10:25:02.931Z,8.41
2022-11-14T10:30:35.739Z,8.44
2022-11-14T10:36:07.980Z,8.52
2022-11-14T10:41:55.959Z,8.53
2022-11-14T10:47:22.593Z,8.58
2022-11-14T10:52:48.063Z,8.56
2022-11-14T10:58:17.508Z,8.42
2022-11-14T11:03:44.386Z,8.41
2022-11-14T11:09:33.382Z,8.47
2022-11-14T11:15:17.400Z,8.47
2022-11-14T11:20:42.991Z,8.55
2022-11-14T11:26:22.043Z,8.56
2022-11-14T11:31:55.777Z,8.58
2022-11-14T11:37:24.637Z,8.61
2022-11-14T11:48:42.813Z,8.47
2022-11-14T11:54:17.201Z,8.38
2022-11-14T11:59:46.778Z,8.30
2022-11-14T12:05:16.895Z,8.21
2022-11-14T12:10:45.196Z,8.10
2022-11-14T12:16:21.762Z,8.06
2022-11-14T12:22:14.810Z,7.99
2022-11-14T12:27:56.017Z,7.97
2022-11-14T12:33:25.491Z,7.91
2022-11-14T12:38:53.501Z,7.93
2022-11-14T12:44:34.921Z,7.93
2022-11-14T12:50:02.640Z,7.85
2022-11-14T12:56:02.667Z,7.79
2022-11-14T13:01:58.803Z,7.78
2022-11-14T13:07:34.742Z,7.77
2022-11-14T13:13:25.936Z,7.80
2022-11-14T13:19:14.878Z,7.89
2022-11-14T13:25:18.886Z,7.82
2022-11-14T13:31:07.333Z,7.74
2022-11-14T13:36:37.718Z,7.72
2022-11-14T13:42:15.908Z,7.66
2022-11-14T13:48:12.379Z,7.60
2022-11-14T13:53:41.245Z,7.58
2022-11-14T13:59:33.466Z,7.51
2022-11-14T14:05:11.016Z,7.45
2022-11-14T14:10:41.286Z,7.38
2022-11-14T14:16:16.901Z,7.35
2022-11-14T14:21:52.892Z,7.32
2022-11-14T14:27:24.449Z,7.28
2022-11-14T14:33:11.393Z,7.26
2022-11-14T14:38:36.673Z,7.27
2022-11-14T14:44:01.949Z,7.24
2022-11-14T14:49:31.387Z,7.20
2022-11-14T14:54:57.909Z,7.18
2022-11-14T15:00:29.903Z,7.12
2022-11-14T15:06:01.926Z,7.05
2022-11-14T15:11:32.417Z,7.05
2022-11-14T15:16:58.587Z,7.03
2022-11-14T15:22:26.131Z,7.00
2022-11-14T15:27:54.229Z,6.97
2022-11-14T15:33:29.815Z,7.00
2022-11-14T15:39:22.694Z,6.99
2022-11-14T15:44:48.936Z,6.97
2022-11-14T15:50:30.402Z,6.97
2022-11-14T15:55:54.951Z,6.95
2022-11-14T16:01:25.970Z,6.88
2022-11-14T16:06:51.329Z,6.80
2022-11-14T16:12:16.633Z,6.78
2022-11-14T16:17:42.739Z,6.75
2022-11-14T16:23:07.366Z,6.75
2022-11-14T16:28:31.862Z,6.77
2022-11-14T16:33:58.086Z,6.79
2022-11-14T16:39:22.568Z,6.79
2022-11-14T16:44:50.625Z,6.76
2022-11-14T16:50:16.937Z,6.71
2022-11-14T16:55:45.471Z,6.71
2022-11-14T17:01:21.426Z,6.72
2022-11-14T17:06:46.152Z,6.72
2022-11-14T17:12:10.666Z,6.70
2022-11-14T17:17:35.718Z,6.71
2022-11-14T17:23:00.394Z,6.69
2022-11-14T17:28:24.849Z,6.64
2022-11-14T17:33:54.721Z,6.64
2022-11-14T17:39:19.973Z,6.63
2022-11-14T17:44:44.748Z,6.59
2022-11-14T17:50:10.724Z,6.60
2022-11-14T17:55:35.221Z,6.61
2022-11-14T18:00:59.996Z,6.55
2022-11-14T18:06:25.460Z,6.51
2022-11-14T18:11:49.667Z,6.50
2022-11-14T18:17:14.170Z,6.48
2022-11-14T18:22:39.275Z,6.48
2022-11-14T18:28:04.049Z,6.52
2022-11-14T18:33:28.536Z,6.53
2022-11-14T18:38:53.245Z,6.53
2022-11-14T18:44:18.425Z,6.52
2022-11-14T18:49:43.067Z,6.48
2022-11-14T18:55:09.119Z,6.45
2022-11-14T19:00:33.806Z,6.43
2022-11-14T19:06:03.605Z,6.42
2022-11-14T19:11:47.569Z,6.37
2022-11-14T19:17:12.049Z,6.32
2022-11-14T19:22:36.810Z,6.28
2022-11-14T19:28:01.965Z,6.27
2022-11-14T19:33:26.208Z,6.25
2022-11-14T19:38:55.476Z,6.25
2022-11-14T19:44:20.232Z,6.26
2022-11-14T19:49:44.735Z,6.27
2022-11-14T19:55:09.359Z,6.25
2022-11-14T20:00:34.186Z,6.25
2022-11-14T20:05:59.151Z,6.24
2022-11-14T20:11:26.688Z,6.20
2022-11-14T20:16:51.149Z,6.19
2022-11-14T20:22:16.461Z,6.23
2022-11-14T20:27:40.764Z,6.21
2022-11-14T20:33:05.992Z,6.16
2022-11-14T20:38:31.947Z,6.14
2022-11-14T20:43:56.621Z,6.16
2022-11-14T20:49:21.428Z,6.12
2022-11-14T20:54:45.870Z,6.05
2022-11-14T21:00:12.521Z,6.00
2022-11-14T21:05:40.673Z,5.97
2022-11-14T21:11:08.720Z,5.99
2022-11-14T21:16:35.031Z,6.00
2022-11-14T21:22:00.251Z,6.01
2022-11-14T21:27:24.809Z,6.00
2022-11-14T21:32:49.432Z,6.00
2022-11-14T21:38:14.083Z,6.01
2022-11-14T21:43:38.962Z,5.97
2022-11-14T21:49:04.090Z,5.95
2022-11-14T21:54:28.324Z,5.96
2022-11-14T21:59:52.835Z,6.00
2022-11-14T22:05:17.858Z,6.01
2022-11-14T22:10:42.328Z,5.95
2022-11-14T22:16:08.609Z,5.90
2022-11-14T22:21:33.340Z,5.85
2022-11-14T22:26:57.858Z,5.81
2022-11-14T22:32:22.574Z,5.84
2022-11-14T22:37:47.280Z,5.88
2022-11-14T22:43:12.073Z,5.93
2022-11-14T22:48:36.671Z,5.92
2022-11-14T22:54:00.988Z,5.91
2022-11-14T22:59:25.339Z,5.88
2022-11-14T23:04:49.972Z,5.89
2022-11-14T23:10:14.635Z,5.84
2022-11-14T23:15:39.911Z,5.82
2022-11-14T23:21:10.132Z,5.84
2022-11-14T23:26:34.889Z,5.85
2022-11-14T23:31:59.482Z,5.85
2022-11-14T23:37:24.150Z,5.89
2022-11-14T23:42:49.000Z,5.91
2022-11-14T23:48:13.666Z,5.86
2022-11-14T23:53:38.461Z,5.83
2022-11-14T23:59:03.174Z,5.79
